sensor_id;sensor_type;location;lat;lon;timestamp;P1;durP1;ratioP1;P2;durP2;ratioP2
46719;SDS011;32452;51.382;-0.002;2023-06-22T00:00:35;11.68;;;6.03;;
46719;SDS011;32452;51.382;-0.002;2023-06-22T00:03:21;12.77;;;6.40;;
46719;SDS011;32452;51.382;-0.002;2023-06-22T00:06:09;10.57;;;6.05;;
46719;SDS011;32452;51.382;-0.002;2023-06-22T00:08:54;11.65;;;5.97;;
46719;SDS011;32452;51.382;-0.002;2023-06-22T00:11:40;12.63;;;6.22;;
46719;SDS011;32452;51.382;-0.002;2023-06-22T00:14:25;15.02;;;6.22;;
46719;SDS011;32452;51.382;-0.002;2023-06-22T00:17:10;12.32;;;5.95;;
46719;SDS011;32452;51.382;-0.002;2023-06-22T00:19:56;13.45;;;5.82;;
46719;SDS011;32452;51.382;-0.002;2023-06-22T00:22:43;13.13;;;6.68;;
46719;SDS011;32452;51.382;-0.002;2023-06-22T00:25:29;10.38;;;5.70;;
46719;SDS011;32452;51.382;-0.002;2023-06-22T00:28:14;12.95;;;6.15;;
46719;SDS011;32452;51.382;-0.002;2023-06-22T00:31:00;12.88;;;6.25;;
46719;SDS011;32452;51.382;-0.002;2023-06-22T00:33:45;13.68;;;6.80;;
46719;SDS011;32452;51.382;-0.002;2023-06-22T00:36:31;13.43;;;5.55;;
46719;SDS011;32452;51.382;-0.002;2023-06-22T00:39:17;11.25;;;5.45;;
46719;SDS011;32452;51.382;-0.002;2023-06-22T00:42:02;13.15;;;6.25;;
46719;SDS011;32452;51.382;-0.002;2023-06-22T00:44:48;12.50;;;6.40;;
46719;SDS011;32452;51.382;-0.002;2023-06-22T00:47:36;10.45;;;5.78;;
46719;SDS011;32452;51.382;-0.002;2023-06-22T00:50:24;14.38;;;6.63;;
46719;SDS011;32452;51.382;-0.002;2023-06-22T00:53:12;10.25;;;6.05;;
46719;SDS011;32452;51.382;-0.002;2023-06-22T00:55:58;10.30;;;5.72;;
46719;SDS011;32452;51.382;-0.002;2023-06-22T00:58:45;11.30;;;5.90;;
46719;SDS011;32452;51.382;-0.002;2023-06-22T01:01:32;10.40;;;5.68;;
46719;SDS011;32452;51.382;-0.002;2023-06-22T01:04:19;14.80;;;6.15;;
46719;SDS011;32452;51.382;-0.002;2023-06-22T01:10:03;10.65;;;6.10;;
46719;SDS011;32452;51.382;-0.002;2023-06-22T01:12:58;9.13;;;5.80;;
46719;SDS011;32452;51.382;-0.002;2023-06-22T01:15:49;11.98;;;6.32;;
46719;SDS011;32452;51.382;-0.002;2023-06-22T01:18:41;11.75;;;6.43;;
46719;SDS011;32452;51.382;-0.002;2023-06-22T01:21:28;12.10;;;5.90;;
46719;SDS011;32452;51.382;-0.002;2023-06-22T01:24:22;9.38;;;5.72;;
46719;SDS011;32452;51.382;-0.002;2023-06-22T01:30:22;11.38;;;5.63;;
46719;SDS011;32452;51.382;-0.002;2023-06-22T01:33:12;13.68;;;6.18;;
46719;SDS011;32452;51.382;-0.002;2023-06-22T01:35:59;15.40;;;6.05;;
46719;SDS011;32452;51.382;-0.002;2023-06-22T01:38:46;12.90;;;6.47;;
46719;SDS011;32452;51.382;-0.002;2023-06-22T01:41:34;14.77;;;6.25;;
46719;SDS011;32452;51.382;-0.002;2023-06-22T01:44:22;13.80;;;6.80;;
46719;SDS011;32452;51.382;-0.002;2023-06-22T01:47:10;14.13;;;6.78;;
46719;SDS011;32452;51.382;-0.002;2023-06-22T01:49:59;12.32;;;7.07;;
46719;SDS011;32452;51.382;-0.002;2023-06-22T01:52:44;12.20;;;7.25;;
46719;SDS011;32452;51.382;-0.002;2023-06-22T01:55:30;16.65;;;7.10;;
46719;SDS011;32452;51.382;-0.002;2023-06-22T01:58:16;11.70;;;7.20;;
46719;SDS011;32452;51.382;-0.002;2023-06-22T02:01:11;14.10;;;7.35;;
46719;SDS011;32452;51.382;-0.002;2023-06-22T02:04:02;13.57;;;6.47;;
46719;SDS011;32452;51.382;-0.002;2023-06-22T02:09:41;12.95;;;6.82;;
46719;SDS011;32452;51.382;-0.002;2023-06-22T02:12:29;14.65;;;7.72;;
46719;SDS011;32452;51.382;-0.002;2023-06-22T02:15:16;13.23;;;7.22;;
46719;SDS011;32452;51.382;-0.002;2023-06-22T02:18:02;12.02;;;6.93;;
46719;SDS011;32452;51.382;-0.002;2023-06-22T02:20:49;11.13;;;6.47;;
46719;SDS011;32452;51.382;-0.002;2023-06-22T02:23:34;13.25;;;6.65;;
46719;SDS011;32452;51.382;-0.002;2023-06-22T02:26:20;15.40;;;7.72;;
46719;SDS011;32452;51.382;-0.002;2023-06-22T02:29:06;10.80;;;6.60;;
46719;SDS011;32452;51.382;-0.002;2023-06-22T02:31:51;14.25;;;7.25;;
46719;SDS011;32452;51.382;-0.002;2023-06-22T02:34:37;10.50;;;6.38;;
46719;SDS011;32452;51.382;-0.002;2023-06-22T02:37:22;13.68;;;6.75;;
46719;SDS011;32452;51.382;-0.002;2023-06-22T02:40:10;12.30;;;6.63;;
46719;SDS011;32452;51.382;-0.002;2023-06-22T02:42:56;13.73;;;7.43;;
46719;SDS011;32452;51.382;-0.002;2023-06-22T02:45:46;11.02;;;6.70;;
46719;SDS011;32452;51.382;-0.002;2023-06-22T02:48:31;12.60;;;6.28;;
46719;SDS011;32452;51.382;-0.002;2023-06-22T02:51:17;13.38;;;6.90;;
46719;SDS011;32452;51.382;-0.002;2023-06-22T02:54:03;12.25;;;6.65;;
46719;SDS011;32452;51.382;-0.002;2023-06-22T02:56:48;12.30;;;7.10;;
46719;SDS011;32452;51.382;-0.002;2023-06-22T02:59:36;10.85;;;6.53;;
46719;SDS011;32452;51.382;-0.002;2023-06-22T03:02:25;13.88;;;7.45;;
46719;SDS011;32452;51.382;-0.002;2023-06-22T03:05:13;13.20;;;6.32;;
46719;SDS011;32452;51.382;-0.002;2023-06-22T03:07:59;14.93;;;6.75;;
46719;SDS011;32452;51.382;-0.002;2023-06-22T03:10:45;11.88;;;7.40;;
46719;SDS011;32452;51.382;-0.002;2023-06-22T03:13:31;12.98;;;7.18;;
46719;SDS011;32452;51.382;-0.002;2023-06-22T03:16:16;12.35;;;7.18;;
46719;SDS011;32452;51.382;-0.002;2023-06-22T03:19:02;13.82;;;7.05;;
46719;SDS011;32452;51.382;-0.002;2023-06-22T03:21:47;13.60;;;6.82;;
46719;SDS011;32452;51.382;-0.002;2023-06-22T03:24:33;14.60;;;6.78;;
46719;SDS011;32452;51.382;-0.002;2023-06-22T03:27:19;13.77;;;7.40;;
46719;SDS011;32452;51.382;-0.002;2023-06-22T03:30:05;13.43;;;6.82;;
46719;SDS011;32452;51.382;-0.002;2023-06-22T03:32:51;15.07;;;6.97;;
46719;SDS011;32452;51.382;-0.002;2023-06-22T03:35:38;13.45;;;6.80;;
46719;SDS011;32452;51.382;-0.002;2023-06-22T03:38:23;12.40;;;6.32;;
46719;SDS011;32452;51.382;-0.002;2023-06-22T03:41:09;13.20;;;6.88;;
46719;SDS011;32452;51.382;-0.002;2023-06-22T03:43:54;11.63;;;6.00;;
46719;SDS011;32452;51.382;-0.002;2023-06-22T03:46:40;12.85;;;6.70;;
46719;SDS011;32452;51.382;-0.002;2023-06-22T03:49:26;15.02;;;7.50;;
46719;SDS011;32452;51.382;-0.002;2023-06-22T03:52:12;13.10;;;6.82;;
46719;SDS011;32452;51.382;-0.002;2023-06-22T03:54:57;16.35;;;7.30;;
46719;SDS011;32452;51.382;-0.002;2023-06-22T03:57:43;11.52;;;6.78;;
46719;SDS011;32452;51.382;-0.002;2023-06-22T04:00:28;10.60;;;6.68;;
46719;SDS011;32452;51.382;-0.002;2023-06-22T04:03:14;10.10;;;6.15;;
46719;SDS011;32452;51.382;-0.002;2023-06-22T04:06:00;10.30;;;5.90;;
46719;SDS011;32452;51.382;-0.002;2023-06-22T04:08:45;14.93;;;7.03;;
46719;SDS011;32452;51.382;-0.002;2023-06-22T04:11:36;15.10;;;7.50;;
46719;SDS011;32452;51.382;-0.002;2023-06-22T04:14:22;16.02;;;7.40;;
46719;SDS011;32452;51.382;-0.002;2023-06-22T04:17:07;16.90;;;9.50;;
46719;SDS011;32452;51.382;-0.002;2023-06-22T04:19:53;15.15;;;8.10;;
46719;SDS011;32452;51.382;-0.002;2023-06-22T04:22:38;15.55;;;8.70;;
46719;SDS011;32452;51.382;-0.002;2023-06-22T04:25:24;15.88;;;9.40;;
46719;SDS011;32452;51.382;-0.002;2023-06-22T04:28:09;17.90;;;7.68;;
46719;SDS011;32452;51.382;-0.002;2023-06-22T04:30:57;15.32;;;7.85;;
46719;SDS011;32452;51.382;-0.002;2023-06-22T04:33:47;14.25;;;6.97;;
46719;SDS011;32452;51.382;-0.002;2023-06-22T04:36:36;15.70;;;7.47;;
46719;SDS011;32452;51.382;-0.002;2023-06-22T04:39:23;13.98;;;8.02;;
46719;SDS011;32452;51.382;-0.002;2023-06-22T04:42:08;15.40;;;7.90;;
46719;SDS011;32452;51.382;-0.002;2023-06-22T04:44:54;17.50;;;7.45;;
46719;SDS011;32452;51.382;-0.002;2023-06-22T04:47:39;14.00;;;7.03;;
46719;SDS011;32452;51.382;-0.002;2023-06-22T04:50:25;13.13;;;7.82;;
46719;SDS011;32452;51.382;-0.002;2023-06-22T04:53:11;13.05;;;7.10;;
46719;SDS011;32452;51.382;-0.002;2023-06-22T04:55:58;13.05;;;7.55;;
46719;SDS011;32452;51.382;-0.002;2023-06-22T04:58:43;14.40;;;7.13;;
46719;SDS011;32452;51.382;-0.002;2023-06-22T05:01:29;12.07;;;6.13;;
46719;SDS011;32452;51.382;-0.002;2023-06-22T05:04:19;11.25;;;6.45;;
46719;SDS011;32452;51.382;-0.002;2023-06-22T05:07:05;11.95;;;6.57;;
46719;SDS011;32452;51.382;-0.002;2023-06-22T05:09:51;13.68;;;6.78;;
46719;SDS011;32452;51.382;-0.002;2023-06-22T05:12:37;13.85;;;7.65;;
46719;SDS011;32452;51.382;-0.002;2023-06-22T05:15:22;15.40;;;7.40;;
46719;SDS011;32452;51.382;-0.002;2023-06-22T05:18:11;12.25;;;7.05;;
46719;SDS011;32452;51.382;-0.002;2023-06-22T05:20:57;16.02;;;7.63;;
46719;SDS011;32452;51.382;-0.002;2023-06-22T05:23:44;14.55;;;7.82;;
46719;SDS011;32452;51.382;-0.002;2023-06-22T05:26:30;18.02;;;8.00;;
46719;SDS011;32452;51.382;-0.002;2023-06-22T05:29:16;10.95;;;6.78;;
46719;SDS011;32452;51.382;-0.002;2023-06-22T05:32:02;12.93;;;6.95;;
46719;SDS011;32452;51.382;-0.002;2023-06-22T05:34:48;15.57;;;7.57;;
46719;SDS011;32452;51.382;-0.002;2023-06-22T05:37:34;12.13;;;6.97;;
46719;SDS011;32452;51.382;-0.002;2023-06-22T05:40:19;12.50;;;6.20;;
46719;SDS011;32452;51.382;-0.002;2023-06-22T05:43:05;14.18;;;7.10;;
46719;SDS011;32452;51.382;-0.002;2023-06-22T05:45:51;11.25;;;5.93;;
46719;SDS011;32452;51.382;-0.002;2023-06-22T05:48:36;12.73;;;6.28;;
46719;SDS011;32452;51.382;-0.002;2023-06-22T05:51:22;12.80;;;7.35;;
46719;SDS011;32452;51.382;-0.002;2023-06-22T05:54:08;13.43;;;7.13;;
46719;SDS011;32452;51.382;-0.002;2023-06-22T05:56:54;12.88;;;6.93;;
46719;SDS011;32452;51.382;-0.002;2023-06-22T05:59:39;11.80;;;6.80;;
46719;SDS011;32452;51.382;-0.002;2023-06-22T06:02:25;12.05;;;6.57;;
46719;SDS011;32452;51.382;-0.002;2023-06-22T06:05:13;14.75;;;6.88;;
46719;SDS011;32452;51.382;-0.002;2023-06-22T06:08:00;16.98;;;7.65;;
46719;SDS011;32452;51.382;-0.002;2023-06-22T06:10:46;11.20;;;6.65;;
46719;SDS011;32452;51.382;-0.002;2023-06-22T06:13:32;14.75;;;7.10;;
46719;SDS011;32452;51.382;-0.002;2023-06-22T06:16:18;15.55;;;7.60;;
46719;SDS011;32452;51.382;-0.002;2023-06-22T06:19:03;11.90;;;7.03;;
46719;SDS011;32452;51.382;-0.002;2023-06-22T06:21:49;14.57;;;8.20;;
46719;SDS011;32452;51.382;-0.002;2023-06-22T06:24:35;16.65;;;7.97;;
46719;SDS011;32452;51.382;-0.002;2023-06-22T06:27:21;13.60;;;8.60;;
46719;SDS011;32452;51.382;-0.002;2023-06-22T06:30:07;14.95;;;7.55;;
46719;SDS011;32452;51.382;-0.002;2023-06-22T06:32:53;14.50;;;7.90;;
46719;SDS011;32452;51.382;-0.002;2023-06-22T06:35:38;12.50;;;7.60;;
46719;SDS011;32452;51.382;-0.002;2023-06-22T06:38:24;17.25;;;7.78;;
46719;SDS011;32452;51.382;-0.002;2023-06-22T06:41:09;14.77;;;7.82;;
46719;SDS011;32452;51.382;-0.002;2023-06-22T06:43:55;16.17;;;7.55;;
46719;SDS011;32452;51.382;-0.002;2023-06-22T06:46:40;12.30;;;7.25;;
46719;SDS011;32452;51.382;-0.002;2023-06-22T06:49:27;14.65;;;7.85;;
46719;SDS011;32452;51.382;-0.002;2023-06-22T06:52:12;16.27;;;7.90;;
46719;SDS011;32452;51.382;-0.002;2023-06-22T06:54:58;14.48;;;8.13;;
46719;SDS011;32452;51.382;-0.002;2023-06-22T06:57:44;11.27;;;7.25;;
46719;SDS011;32452;51.382;-0.002;2023-06-22T07:00:33;13.50;;;7.05;;
46719;SDS011;32452;51.382;-0.002;2023-06-22T07:03:21;14.75;;;8.30;;
46719;SDS011;32452;51.382;-0.002;2023-06-22T07:06:06;15.80;;;8.05;;
46719;SDS011;32452;51.382;-0.002;2023-06-22T07:08:52;15.18;;;8.20;;
46719;SDS011;32452;51.382;-0.002;2023-06-22T07:11:38;12.20;;;6.78;;
46719;SDS011;32452;51.382;-0.002;2023-06-22T07:14:23;10.93;;;7.28;;
46719;SDS011;32452;51.382;-0.002;2023-06-22T07:17:09;14.40;;;6.05;;
46719;SDS011;32452;51.382;-0.002;2023-06-22T07:19:55;12.73;;;7.50;;
46719;SDS011;32452;51.382;-0.002;2023-06-22T07:22:41;10.60;;;5.85;;
46719;SDS011;32452;51.382;-0.002;2023-06-22T07:25:27;12.00;;;6.80;;
46719;SDS011;32452;51.382;-0.002;2023-06-22T07:28:13;12.93;;;6.80;;
46719;SDS011;32452;51.382;-0.002;2023-06-22T07:30:59;13.40;;;6.75;;
46719;SDS011;32452;51.382;-0.002;2023-06-22T07:33:45;12.57;;;6.50;;
46719;SDS011;32452;51.382;-0.002;2023-06-22T07:36:30;16.50;;;6.53;;
46719;SDS011;32452;51.382;-0.002;2023-06-22T07:39:16;10.95;;;6.00;;
46719;SDS011;32452;51.382;-0.002;2023-06-22T07:42:02;11.10;;;6.50;;
46719;SDS011;32452;51.382;-0.002;2023-06-22T07:44:48;11.45;;;6.13;;
46719;SDS011;32452;51.382;-0.002;2023-06-22T07:47:35;13.57;;;6.40;;
46719;SDS011;32452;51.382;-0.002;2023-06-22T07:50:21;11.65;;;5.95;;
46719;SDS011;32452;51.382;-0.002;2023-06-22T07:53:07;12.20;;;6.20;;
46719;SDS011;32452;51.382;-0.002;2023-06-22T07:55:52;12.98;;;5.60;;
46719;SDS011;32452;51.382;-0.002;2023-06-22T07:58:38;10.52;;;6.43;;
46719;SDS011;32452;51.382;-0.002;2023-06-22T08:01:24;10.80;;;5.97;;
46719;SDS011;32452;51.382;-0.002;2023-06-22T08:04:09;9.90;;;6.03;;
46719;SDS011;32452;51.382;-0.002;2023-06-22T08:06:55;10.23;;;5.97;;
46719;SDS011;32452;51.382;-0.002;2023-06-22T08:09:42;10.43;;;5.95;;
46719;SDS011;32452;51.382;-0.002;2023-06-22T08:12:31;11.77;;;5.63;;
46719;SDS011;32452;51.382;-0.002;2023-06-22T08:15:17;10.35;;;5.78;;
46719;SDS011;32452;51.382;-0.002;2023-06-22T08:18:03;11.02;;;6.15;;
46719;SDS011;32452;51.382;-0.002;2023-06-22T08:20:48;11.77;;;6.30;;
46719;SDS011;32452;51.382;-0.002;2023-06-22T08:23:34;13.25;;;5.95;;
46719;SDS011;32452;51.382;-0.002;2023-06-22T08:26:20;9.90;;;5.70;;
46719;SDS011;32452;51.382;-0.002;2023-06-22T08:29:06;11.20;;;6.32;;
46719;SDS011;32452;51.382;-0.002;2023-06-22T08:31:52;14.82;;;8.60;;
46719;SDS011;32452;51.382;-0.002;2023-06-22T08:34:37;11.35;;;5.63;;
46719;SDS011;32452;51.382;-0.002;2023-06-22T08:37:27;12.20;;;6.13;;
46719;SDS011;32452;51.382;-0.002;2023-06-22T08:40:16;9.95;;;5.75;;
46719;SDS011;32452;51.382;-0.002;2023-06-22T08:43:01;10.20;;;5.63;;
46719;SDS011;32452;51.382;-0.002;2023-06-22T08:45:47;17.73;;;7.15;;
46719;SDS011;32452;51.382;-0.002;2023-06-22T08:48:32;9.95;;;5.72;;
46719;SDS011;32452;51.382;-0.002;2023-06-22T08:51:18;11.88;;;5.78;;
46719;SDS011;32452;51.382;-0.002;2023-06-22T08:54:04;11.77;;;5.80;;
46719;SDS011;32452;51.382;-0.002;2023-06-22T08:56:49;9.30;;;5.20;;
46719;SDS011;32452;51.382;-0.002;2023-06-22T08:59:35;7.65;;;4.55;;
46719;SDS011;32452;51.382;-0.002;2023-06-22T09:02:22;8.23;;;5.45;;
46719;SDS011;32452;51.382;-0.002;2023-06-22T09:05:07;10.90;;;5.50;;
46719;SDS011;32452;51.382;-0.002;2023-06-22T09:07:53;7.75;;;4.60;;
46719;SDS011;32452;51.382;-0.002;2023-06-22T09:10:40;8.52;;;5.10;;
46719;SDS011;32452;51.382;-0.002;2023-06-22T09:13:27;9.98;;;4.80;;
46719;SDS011;32452;51.382;-0.002;2023-06-22T09:16:15;7.93;;;4.40;;
46719;SDS011;32452;51.382;-0.002;2023-06-22T09:19:00;8.30;;;4.88;;
46719;SDS011;32452;51.382;-0.002;2023-06-22T09:21:46;9.48;;;4.80;;
46719;SDS011;32452;51.382;-0.002;2023-06-22T09:24:32;11.25;;;5.43;;
46719;SDS011;32452;51.382;-0.002;2023-06-22T09:27:18;9.07;;;4.88;;
46719;SDS011;32452;51.382;-0.002;2023-06-22T09:30:04;10.07;;;5.60;;
46719;SDS011;32452;51.382;-0.002;2023-06-22T09:32:50;9.50;;;4.93;;
46719;SDS011;32452;51.382;-0.002;2023-06-22T09:35:37;10.45;;;5.00;;
46719;SDS011;32452;51.382;-0.002;2023-06-22T09:38:22;10.25;;;5.30;;
46719;SDS011;32452;51.382;-0.002;2023-06-22T09:41:08;9.98;;;5.38;;
46719;SDS011;32452;51.382;-0.002;2023-06-22T09:43:53;12.13;;;5.63;;
46719;SDS011;32452;51.382;-0.002;2023-06-22T09:46:42;10.32;;;5.05;;
46719;SDS011;32452;51.382;-0.002;2023-06-22T09:49:29;9.52;;;5.18;;
46719;SDS011;32452;51.382;-0.002;2023-06-22T09:52:32;8.30;;;4.82;;
46719;SDS011;32452;51.382;-0.002;2023-06-22T09:55:32;9.45;;;4.80;;
46719;SDS011;32452;51.382;-0.002;2023-06-22T09:58:17;8.45;;;4.55;;
46719;SDS011;32452;51.382;-0.002;2023-06-22T10:01:03;12.45;;;5.10;;
46719;SDS011;32452;51.382;-0.002;2023-06-22T10:03:49;11.75;;;5.22;;
46719;SDS011;32452;51.382;-0.002;2023-06-22T10:06:35;9.23;;;4.80;;
46719;SDS011;32452;51.382;-0.002;2023-06-22T10:09:20;9.25;;;5.10;;
46719;SDS011;32452;51.382;-0.002;2023-06-22T10:12:06;10.02;;;5.32;;
46719;SDS011;32452;51.382;-0.002;2023-06-22T10:14:52;8.25;;;4.25;;
46719;SDS011;32452;51.382;-0.002;2023-06-22T10:17:38;9.82;;;5.07;;
46719;SDS011;32452;51.382;-0.002;2023-06-22T10:20:24;13.57;;;6.60;;
46719;SDS011;32452;51.382;-0.002;2023-06-22T10:23:11;9.93;;;5.82;;
46719;SDS011;32452;51.382;-0.002;2023-06-22T10:25:56;8.35;;;4.93;;
46719;SDS011;32452;51.382;-0.002;2023-06-22T10:28:43;11.57;;;5.25;;
46719;SDS011;32452;51.382;-0.002;2023-06-22T10:31:28;9.95;;;4.28;;
46719;SDS011;32452;51.382;-0.002;2023-06-22T10:34:14;11.52;;;4.97;;
46719;SDS011;32452;51.382;-0.002;2023-06-22T10:37:00;17.00;;;6.47;;
46719;SDS011;32452;51.382;-0.002;2023-06-22T10:39:45;10.05;;;4.88;;
46719;SDS011;32452;51.382;-0.002;2023-06-22T10:42:31;10.98;;;5.00;;
46719;SDS011;32452;51.382;-0.002;2023-06-22T10:45:16;9.80;;;4.60;;
46719;SDS011;32452;51.382;-0.002;2023-06-22T10:48:02;9.35;;;5.15;;
46719;SDS011;32452;51.382;-0.002;2023-06-22T10:50:48;9.88;;;5.13;;
46719;SDS011;32452;51.382;-0.002;2023-06-22T10:53:33;11.50;;;5.43;;
46719;SDS011;32452;51.382;-0.002;2023-06-22T10:56:19;9.35;;;5.50;;
46719;SDS011;32452;51.382;-0.002;2023-06-22T10:59:04;8.70;;;4.45;;
46719;SDS011;32452;51.382;-0.002;2023-06-22T11:01:50;8.90;;;4.90;;
46719;SDS011;32452;51.382;-0.002;2023-06-22T11:04:35;7.18;;;3.83;;
46719;SDS011;32452;51.382;-0.002;2023-06-22T11:07:21;6.93;;;4.18;;
46719;SDS011;32452;51.382;-0.002;2023-06-22T11:10:06;39.40;;;11.13;;
46719;SDS011;32452;51.382;-0.002;2023-06-22T11:12:52;7.57;;;4.28;;
46719;SDS011;32452;51.382;-0.002;2023-06-22T11:15:38;7.50;;;4.20;;
46719;SDS011;32452;51.382;-0.002;2023-06-22T11:18:24;9.93;;;4.75;;
46719;SDS011;32452;51.382;-0.002;2023-06-22T11:21:09;7.43;;;3.97;;
46719;SDS011;32452;51.382;-0.002;2023-06-22T11:23:55;7.05;;;3.50;;
46719;SDS011;32452;51.382;-0.002;2023-06-22T11:26:41;10.13;;;4.13;;
46719;SDS011;32452;51.382;-0.002;2023-06-22T11:29:26;5.82;;;3.63;;
46719;SDS011;32452;51.382;-0.002;2023-06-22T11:32:22;10.00;;;5.35;;
46719;SDS011;32452;51.382;-0.002;2023-06-22T11:35:07;6.63;;;3.85;;
46719;SDS011;32452;51.382;-0.002;2023-06-22T11:37:53;12.88;;;5.35;;
46719;SDS011;32452;51.382;-0.002;2023-06-22T11:40:39;7.80;;;3.85;;
46719;SDS011;32452;51.382;-0.002;2023-06-22T11:43:24;10.38;;;4.30;;
46719;SDS011;32452;51.382;-0.002;2023-06-22T11:46:13;11.38;;;4.65;;
46719;SDS011;32452;51.382;-0.002;2023-06-22T11:48:58;10.10;;;4.68;;
46719;SDS011;32452;51.382;-0.002;2023-06-22T11:51:45;7.65;;;4.57;;
46719;SDS011;32452;51.382;-0.002;2023-06-22T11:54:30;6.60;;;3.42;;
46719;SDS011;32452;51.382;-0.002;2023-06-22T11:57:16;5.90;;;3.47;;
46719;SDS011;32452;51.382;-0.002;2023-06-22T12:00:02;8.80;;;4.15;;
46719;SDS011;32452;51.382;-0.002;2023-06-22T12:03:02;9.80;;;4.40;;
46719;SDS011;32452;51.382;-0.002;2023-06-22T12:05:49;10.55;;;4.40;;
46719;SDS011;32452;51.382;-0.002;2023-06-22T12:08:38;7.20;;;3.55;;
46719;SDS011;32452;51.382;-0.002;2023-06-22T12:11:25;7.72;;;3.55;;
46719;SDS011;32452;51.382;-0.002;2023-06-22T12:14:11;5.55;;;3.30;;
46719;SDS011;32452;51.382;-0.002;2023-06-22T12:16:56;11.10;;;4.03;;
46719;SDS011;32452;51.382;-0.002;2023-06-22T12:19:42;4.85;;;3.20;;
46719;SDS011;32452;51.382;-0.002;2023-06-22T12:22:27;7.30;;;3.90;;
46719;SDS011;32452;51.382;-0.002;2023-06-22T12:25:13;7.47;;;3.60;;
46719;SDS011;32452;51.382;-0.002;2023-06-22T12:27:58;7.50;;;3.42;;
46719;SDS011;32452;51.382;-0.002;2023-06-22T12:30:44;5.25;;;3.55;;
46719;SDS011;32452;51.382;-0.002;2023-06-22T12:33:29;8.70;;;4.03;;
46719;SDS011;32452;51.382;-0.002;2023-06-22T12:36:15;8.52;;;3.50;;
46719;SDS011;32452;51.382;-0.002;2023-06-22T12:39:01;7.88;;;3.70;;
46719;SDS011;32452;51.382;-0.002;2023-06-22T12:41:47;6.88;;;3.70;;
46719;SDS011;32452;51.382;-0.002;2023-06-22T12:44:32;6.97;;;3.50;;
46719;SDS011;32452;51.382;-0.002;2023-06-22T12:47:18;5.68;;;3.40;;
46719;SDS011;32452;51.382;-0.002;2023-06-22T12:50:05;6.97;;;3.25;;
46719;SDS011;32452;51.382;-0.002;2023-06-22T12:52:51;7.40;;;3.30;;
46719;SDS011;32452;51.382;-0.002;2023-06-22T12:55:36;5.50;;;3.05;;
46719;SDS011;32452;51.382;-0.002;2023-06-22T12:58:22;4.47;;;2.88;;
46719;SDS011;32452;51.382;-0.002;2023-06-22T13:01:07;6.72;;;3.63;;
46719;SDS011;32452;51.382;-0.002;2023-06-22T13:03:53;7.70;;;3.30;;
46719;SDS011;32452;51.382;-0.002;2023-06-22T13:06:39;7.63;;;3.38;;
46719;SDS011;32452;51.382;-0.002;2023-06-22T13:09:28;6.68;;;3.20;;
46719;SDS011;32452;51.382;-0.002;2023-06-22T13:12:15;6.90;;;3.33;;
46719;SDS011;32452;51.382;-0.002;2023-06-22T13:15:00;6.38;;;3.35;;
46719;SDS011;32452;51.382;-0.002;2023-06-22T13:17:48;9.45;;;3.90;;
46719;SDS011;32452;51.382;-0.002;2023-06-22T13:20:33;10.02;;;3.50;;
46719;SDS011;32452;51.382;-0.002;2023-06-22T13:23:19;5.65;;;3.75;;
46719;SDS011;32452;51.382;-0.002;2023-06-22T13:26:05;6.25;;;3.17;;
46719;SDS011;32452;51.382;-0.002;2023-06-22T13:28:50;4.60;;;2.85;;
46719;SDS011;32452;51.382;-0.002;2023-06-22T13:31:36;4.07;;;2.70;;
46719;SDS011;32452;51.382;-0.002;2023-06-22T13:34:22;4.82;;;2.65;;
46719;SDS011;32452;51.382;-0.002;2023-06-22T13:37:07;9.98;;;3.20;;
46719;SDS011;32452;51.382;-0.002;2023-06-22T13:39:53;6.88;;;3.42;;
46719;SDS011;32452;51.382;-0.002;2023-06-22T13:42:42;5.72;;;2.92;;
46719;SDS011;32452;51.382;-0.002;2023-06-22T13:45:27;4.85;;;3.13;;
46719;SDS011;32452;51.382;-0.002;2023-06-22T13:48:13;7.15;;;3.10;;
46719;SDS011;32452;51.382;-0.002;2023-06-22T13:50:58;4.88;;;2.88;;
46719;SDS011;32452;51.382;-0.002;2023-06-22T13:53:44;6.60;;;3.10;;
46719;SDS011;32452;51.382;-0.002;2023-06-22T13:56:29;4.28;;;2.75;;
46719;SDS011;32452;51.382;-0.002;2023-06-22T13:59:15;5.43;;;3.08;;
46719;SDS011;32452;51.382;-0.002;2023-06-22T14:02:01;4.35;;;2.58;;
46719;SDS011;32452;51.382;-0.002;2023-06-22T14:04:47;5.95;;;3.00;;
46719;SDS011;32452;51.382;-0.002;2023-06-22T14:07:33;6.03;;;3.15;;
46719;SDS011;32452;51.382;-0.002;2023-06-22T14:10:19;4.47;;;2.80;;
46719;SDS011;32452;51.382;-0.002;2023-06-22T14:13:04;4.28;;;2.65;;
46719;SDS011;32452;51.382;-0.002;2023-06-22T14:15:50;5.97;;;3.22;;
46719;SDS011;32452;51.382;-0.002;2023-06-22T14:18:37;9.10;;;3.03;;
46719;SDS011;32452;51.382;-0.002;2023-06-22T14:21:22;5.43;;;2.65;;
46719;SDS011;32452;51.382;-0.002;2023-06-22T14:24:08;6.38;;;3.13;;
46719;SDS011;32452;51.382;-0.002;2023-06-22T14:26:54;6.88;;;2.95;;
46719;SDS011;32452;51.382;-0.002;2023-06-22T14:29:40;3.70;;;2.67;;
46719;SDS011;32452;51.382;-0.002;2023-06-22T14:32:27;5.90;;;2.80;;
46719;SDS011;32452;51.382;-0.002;2023-06-22T14:35:15;4.30;;;2.53;;
46719;SDS011;32452;51.382;-0.002;2023-06-22T14:38:00;4.82;;;2.92;;
46719;SDS011;32452;51.382;-0.002;2023-06-22T14:40:46;6.38;;;3.08;;
46719;SDS011;32452;51.382;-0.002;2023-06-22T14:43:52;5.50;;;2.75;;
46719;SDS011;32452;51.382;-0.002;2023-06-22T14:46:38;5.75;;;3.20;;
46719;SDS011;32452;51.382;-0.002;2023-06-22T14:49:23;5.78;;;2.90;;
46719;SDS011;32452;51.382;-0.002;2023-06-22T14:52:09;5.05;;;2.97;;
46719;SDS011;32452;51.382;-0.002;2023-06-22T14:54:55;6.70;;;2.88;;
46719;SDS011;32452;51.382;-0.002;2023-06-22T14:57:40;4.53;;;2.88;;
46719;SDS011;32452;51.382;-0.002;2023-06-22T15:00:26;6.38;;;2.75;;
46719;SDS011;32452;51.382;-0.002;2023-06-22T15:03:12;4.00;;;2.53;;
46719;SDS011;32452;51.382;-0.002;2023-06-22T15:06:03;4.93;;;2.63;;
46719;SDS011;32452;51.382;-0.002;2023-06-22T15:08:49;5.75;;;3.03;;
46719;SDS011;32452;51.382;-0.002;2023-06-22T15:11:34;7.38;;;3.22;;
46719;SDS011;32452;51.382;-0.002;2023-06-22T15:14:20;5.60;;;3.03;;
46719;SDS011;32452;51.382;-0.002;2023-06-22T15:17:06;5.10;;;2.85;;
46719;SDS011;32452;51.382;-0.002;2023-06-22T15:19:57;5.53;;;2.97;;
46719;SDS011;32452;51.382;-0.002;2023-06-22T15:22:43;10.05;;;2.78;;
46719;SDS011;32452;51.382;-0.002;2023-06-22T15:25:28;5.63;;;2.60;;
46719;SDS011;32452;51.382;-0.002;2023-06-22T15:28:14;5.43;;;3.35;;
46719;SDS011;32452;51.382;-0.002;2023-06-22T15:31:00;5.97;;;2.90;;
46719;SDS011;32452;51.382;-0.002;2023-06-22T15:33:46;7.20;;;3.15;;
46719;SDS011;32452;51.382;-0.002;2023-06-22T15:36:31;5.38;;;2.80;;
46719;SDS011;32452;51.382;-0.002;2023-06-22T15:39:19;7.05;;;2.83;;
46719;SDS011;32452;51.382;-0.002;2023-06-22T15:42:04;4.72;;;2.80;;
46719;SDS011;32452;51.382;-0.002;2023-06-22T15:44:50;5.47;;;2.80;;
46719;SDS011;32452;51.382;-0.002;2023-06-22T15:47:35;6.30;;;2.85;;
46719;SDS011;32452;51.382;-0.002;2023-06-22T15:50:21;5.13;;;2.70;;
46719;SDS011;32452;51.382;-0.002;2023-06-22T15:53:07;7.50;;;2.85;;
46719;SDS011;32452;51.382;-0.002;2023-06-22T15:55:53;5.45;;;2.42;;
46719;SDS011;32452;51.382;-0.002;2023-06-22T15:58:39;7.13;;;3.15;;
46719;SDS011;32452;51.382;-0.002;2023-06-22T16:01:25;6.95;;;3.55;;
46719;SDS011;32452;51.382;-0.002;2023-06-22T16:04:11;6.88;;;3.00;;
46719;SDS011;32452;51.382;-0.002;2023-06-22T16:06:56;4.82;;;2.50;;
46719;SDS011;32452;51.382;-0.002;2023-06-22T16:09:42;4.38;;;2.47;;
46719;SDS011;32452;51.382;-0.002;2023-06-22T16:12:28;5.00;;;2.85;;
46719;SDS011;32452;51.382;-0.002;2023-06-22T16:15:14;4.75;;;2.70;;
46719;SDS011;32452;51.382;-0.002;2023-06-22T16:18:00;5.88;;;3.33;;
46719;SDS011;32452;51.382;-0.002;2023-06-22T16:20:45;4.22;;;2.90;;
46719;SDS011;32452;51.382;-0.002;2023-06-22T16:23:31;5.18;;;2.88;;
46719;SDS011;32452;51.382;-0.002;2023-06-22T16:26:17;5.97;;;2.67;;